Time;durP1;ratioP1;P1;durP2;ratioP2;P2;SDS_P1;SDS_P2;PMS_P1;PMS_P2;Temp;Humidity;BMP_temperature;BMP_pressure;BME280_temperature;BME280_humidity;BME280_pressure;Samples;Min_cycle;Max_cycle;Signal;HPM_P1;HPM_P2
2022/01/26 00:00:43;;;;;;;16.77;12.20;;;;;;;;;;4987200;28;20416;-68
2022/01/26 00:06:01;;;;;;;13.47;11.07;;;;;;;;;;4988420;28;20433;-66
2022/01/26 00:08:27;;;;;;;11.23;10.13;;;;;;;;;;4990355;28;20477;-70
2022/01/26 00:10:53;;;;;;;11.20;10.10;;;;;;;;;;4991296;28;20441;-67
2022/01/26 00:13:19;;;;;;;11.13;9.97;;;;;;;;;;4989841;28;20447;-70
2022/01/26 00:15:45;;;;;;;10.67;9.67;;;;;;;;;;4990877;28;20524;-69
2022/01/26 00:18:11;;;;;;;11.20;10.07;;;;;;;;;;4990744;28;20515;-70
2022/01/26 00:20:49;;;;;;;14.90;10.70;;;;;;;;;;4989403;28;20456;-68
2022/01/26 00:25:57;;;;;;;10.20;9.23;;;;;;;;;;4991228;28;20515;-69
2022/01/26 00:38:54;;;;;;;11.03;9.77;;;;;;;;;;4988969;28;20491;-68
2022/01/26 00:41:32;;;;;;;14.00;11.60;;;;;;;;;;4990275;28;20453;-66
2022/01/26 00:43:58;;;;;;;13.43;11.70;;;;;;;;;;4991697;28;20428;-68
2022/01/26 00:46:24;;;;;;;12.93;11.53;;;;;;;;;;4987077;28;20439;-68
2022/01/26 00:48:51;;;;;;;13.80;12.13;;;;;;;;;;4986403;28;20487;-66
2022/01/26 00:51:20;;;;;;;12.30;10.87;;;;;;;;;;4991905;28;20501;-70
2022/01/26 00:54:09;;;;;;;17.10;12.33;;;;;;;;;;4990870;28;20514;-72
2022/01/26 00:56:33;;;;;;;14.67;11.67;;;;;;;;;;4991212;28;20417;-65
2022/01/26 00:58:59;;;;;;;14.43;12.93;;;;;;;;;;4989326;28;20448;-68
2022/01/26 01:01:26;;;;;;;14.13;12.00;;;;;;;;;;4988455;28;20444;-66
2022/01/26 01:03:52;;;;;;;14.10;11.87;;;;;;;;;;4991561;28;20440;-75
2022/01/26 01:08:46;;;;;;;14.70;11.30;;;;;;;;;;4983587;28;20484;-65
2022/01/26 01:11:12;;;;;;;20.13;13.00;;;;;;;;;;4990640;28;20460;-68
2022/01/26 01:13:40;;;;;;;15.60;12.13;;;;;;;;;;4989578;28;20447;-68
2022/01/26 01:16:07;;;;;;;13.77;12.30;;;;;;;;;;4988806;28;20440;-65
2022/01/26 01:26:35;;;;;;;19.40;13.10;;;;;;;;;;4989257;28;20508;-67
2022/01/26 01:31:46;;;;;;;16.20;13.50;;;;;;;;;;4990249;28;20471;-67
2022/01/26 01:34:14;;;;;;;18.43;12.13;;;;;;;;;;4989486;28;20441;-67
2022/01/26 01:36:42;;;;;;;15.30;11.87;;;;;;;;;;4986072;28;20771;-70
2022/01/26 01:39:08;;;;;;;20.13;13.67;;;;;;;;;;4983249;28;20457;-69
2022/01/26 01:41:35;;;;;;;16.23;12.43;;;;;;;;;;4988559;28;20540;-67
2022/01/26 01:44:02;;;;;;;14.10;12.43;;;;;;;;;;4989612;28;20442;-65
2022/01/26 01:46:28;;;;;;;18.83;13.83;;;;;;;;;;4987668;28;20443;-68
2022/01/26 01:48:54;;;;;;;21.70;13.63;;;;;;;;;;4987870;28;20937;-66
2022/01/26 01:51:27;;;;;;;17.70;12.60;;;;;;;;;;4988072;28;20457;-68
2022/01/26 01:53:52;;;;;;;20.43;13.77;;;;;;;;;;4990235;28;20464;-67
2022/01/26 01:56:22;;;;;;;20.47;13.10;;;;;;;;;;4988760;28;20433;-68
2022/01/26 01:58:49;;;;;;;18.97;12.07;;;;;;;;;;4986999;28;20487;-67
2022/01/26 02:01:14;;;;;;;14.53;12.83;;;;;;;;;;4984305;28;20456;-67
2022/01/26 02:03:40;;;;;;;16.17;12.50;;;;;;;;;;4986914;28;20444;-65
2022/01/26 02:06:07;;;;;;;23.97;13.67;;;;;;;;;;4989915;28;20429;-65
2022/01/26 02:08:33;;;;;;;18.70;13.70;;;;;;;;;;4989784;28;20516;-65
2022/01/26 02:10:59;;;;;;;20.17;13.17;;;;;;;;;;4983557;28;22003;-65
2022/01/26 02:13:33;;;;;;;22.07;14.50;;;;;;;;;;4988126;28;20959;-67
2022/01/26 02:16:11;;;;;;;16.20;13.50;;;;;;;;;;4988332;28;20839;-71
2022/01/26 02:21:31;;;;;;;18.50;13.00;;;;;;;;;;4983717;28;20460;-65
2022/01/26 02:57:04;;;;;;;20.60;13.47;;;;;;;;;;4985969;28;21057;-66
2022/01/26 02:59:50;;;;;;;19.23;13.50;;;;;;;;;;4978625;28;20452;-68
2022/01/26 03:02:42;;;;;;;19.10;12.90;;;;;;;;;;4987798;28;20438;-66
2022/01/26 03:05:11;;;;;;;19.33;13.57;;;;;;;;;;4986103;28;20433;-72
2022/01/26 03:07:45;;;;;;;19.80;13.90;;;;;;;;;;4988454;28;20439;-66
2022/01/26 03:10:26;;;;;;;16.00;12.17;;;;;;;;;;4986939;28;20899;-68
2022/01/26 03:13:00;;;;;;;18.03;13.13;;;;;;;;;;4985873;28;20480;-70
2022/01/26 03:15:35;;;;;;;17.30;12.70;;;;;;;;;;4983667;28;20953;-65
2022/01/26 03:20:29;;;;;;;16.17;12.80;;;;;;;;;;4986190;28;20461;-65
2022/01/26 03:29:09;;;;;;;20.50;13.43;;;;;;;;;;4985664;28;20429;-70
2022/01/26 03:32:06;;;;;;;18.73;12.70;;;;;;;;;;4987117;28;20984;-65
2022/01/26 03:34:22;;;;;;;16.07;12.33;;;;;;;;;;4983919;28;20512;-68
2022/01/26 03:39:16;;;;;;;19.57;12.27;;;;;;;;;;4988054;28;21068;-65
2022/01/26 03:44:09;;;;;;;27.40;14.43;;;;;;;;;;4990404;28;20430;-65
2022/01/26 03:46:35;;;;;;;19.20;13.93;;;;;;;;;;4988889;28;20467;-66
2022/01/26 03:49:01;;;;;;;20.80;13.80;;;;;;;;;;4989483;28;20448;-65
2022/01/26 03:51:28;;;;;;;23.20;12.47;;;;;;;;;;4989021;28;20811;-65
2022/01/26 03:53:54;;;;;;;21.20;14.80;;;;;;;;;;4990021;28;20441;-65
2022/01/26 03:56:20;;;;;;;19.27;14.57;;;;;;;;;;4984248;28;20437;-65
2022/01/26 03:58:46;;;;;;;15.80;12.90;;;;;;;;;;4990324;28;20441;-65
2022/01/26 04:01:12;;;;;;;21.97;13.00;;;;;;;;;;4978958;28;20948;-65
2022/01/26 04:03:38;;;;;;;15.13;13.00;;;;;;;;;;4990583;28;20439;-66
2022/01/26 04:06:04;;;;;;;16.93;12.13;;;;;;;;;;4989887;28;20528;-65
2022/01/26 04:08:33;;;;;;;21.20;14.90;;;;;;;;;;4991853;28;20495;-66
2022/01/26 04:11:44;;;;;;;21.17;14.13;;;;;;;;;;4984745;28;20945;-65
2022/01/26 04:13:49;;;;;;;18.23;12.40;;;;;;;;;;4978405;28;20428;-65
2022/01/26 04:16:15;;;;;;;15.33;12.50;;;;;;;;;;4987360;28;20437;-66
2022/01/26 04:18:42;;;;;;;24.53;14.47;;;;;;;;;;4991827;28;20424;-65
2022/01/26 04:26:25;;;;;;;23.57;15.57;;;;;;;;;;4985439;28;20484;-66
2022/01/26 04:28:57;;;;;;;22.00;15.43;;;;;;;;;;4987499;28;20452;-68
2022/01/26 04:31:23;;;;;;;23.17;14.77;;;;;;;;;;4989619;28;20489;-65
2022/01/26 04:33:50;;;;;;;26.00;16.43;;;;;;;;;;4991461;28;20468;-65
2022/01/26 04:36:24;;;;;;;25.90;14.87;;;;;;;;;;4986922;28;20455;-65
2022/01/26 04:38:54;;;;;;;22.47;15.23;;;;;;;;;;4984505;28;20890;-66
2022/01/26 04:41:30;;;;;;;23.03;14.87;;;;;;;;;;4991250;28;20448;-70
2022/01/26 04:44:02;;;;;;;23.23;14.80;;;;;;;;;;4991474;28;20475;-66
2022/01/26 04:46:28;;;;;;;20.60;14.57;;;;;;;;;;4988271;28;20429;-65
2022/01/26 04:48:54;;;;;;;22.60;14.60;;;;;;;;;;4985016;28;20448;-65
2022/01/26 04:51:20;;;;;;;21.87;13.73;;;;;;;;;;4988479;28;20473;-65
2022/01/26 04:53:46;;;;;;;24.43;16.20;;;;;;;;;;4990893;28;20432;-68
2022/01/26 04:56:14;;;;;;;22.57;14.87;;;;;;;;;;4987465;28;20437;-66
2022/01/26 04:58:40;;;;;;;22.93;15.50;;;;;;;;;;4987658;28;21028;-66
2022/01/26 05:01:06;;;;;;;20.63;14.50;;;;;;;;;;4988328;28;20532;-65
2022/01/26 05:03:32;;;;;;;20.30;14.20;;;;;;;;;;4990408;28;20553;-65
2022/01/26 05:05:58;;;;;;;25.33;14.30;;;;;;;;;;4988066;28;20459;-65
2022/01/26 05:08:24;;;;;;;23.50;13.93;;;;;;;;;;4989563;28;21695;-65
2022/01/26 05:10:50;;;;;;;22.00;12.97;;;;;;;;;;4989028;28;20441;-67
2022/01/26 05:13:16;;;;;;;20.13;14.60;;;;;;;;;;4991268;28;20496;-66
2022/01/26 05:15:43;;;;;;;21.50;14.53;;;;;;;;;;4991317;28;20499;-67
2022/01/26 05:18:10;;;;;;;24.70;15.17;;;;;;;;;;4988915;28;20480;-66
2022/01/26 05:20:36;;;;;;;25.83;15.27;;;;;;;;;;4990812;28;21877;-67
2022/01/26 05:23:02;;;;;;;17.17;13.20;;;;;;;;;;4990450;28;20437;-65
2022/01/26 05:25:28;;;;;;;20.20;13.80;;;;;;;;;;4990516;28;20431;-65
2022/01/26 05:27:54;;;;;;;21.37;14.37;;;;;;;;;;4984598;28;20449;-66
2022/01/26 05:30:20;;;;;;;25.93;14.90;;;;;;;;;;4989982;28;20441;-66
2022/01/26 05:32:46;;;;;;;23.93;14.40;;;;;;;;;;4989480;28;20607;-65
2022/01/26 05:35:13;;;;;;;22.30;15.10;;;;;;;;;;4979070;28;20441;-65
2022/01/26 05:37:39;;;;;;;23.70;14.50;;;;;;;;;;5021185;23;20510;-65
2022/01/26 05:40:06;;;;;;;19.87;13.30;;;;;;;;;;4991397;28;20452;-65
2022/01/26 05:42:34;;;;;;;25.53;14.77;;;;;;;;;;4990940;28;20437;-65
2022/01/26 05:45:04;;;;;;;35.23;20.43;;;;;;;;;;4973687;28;20429;-65
2022/01/26 05:47:32;;;;;;;23.13;16.83;;;;;;;;;;4989230;28;20471;-65
2022/01/26 05:49:58;;;;;;;24.70;15.43;;;;;;;;;;4991342;28;20519;-68
2022/01/26 05:52:24;;;;;;;27.43;15.87;;;;;;;;;;4990657;28;20481;-65
2022/01/26 05:54:50;;;;;;;19.60;14.73;;;;;;;;;;4973803;28;20537;-67
2022/01/26 05:57:16;;;;;;;26.10;14.60;;;;;;;;;;4990084;28;20469;-64
2022/01/26 05:59:42;;;;;;;22.07;14.00;;;;;;;;;;4973452;28;20469;-65
2022/01/26 06:02:08;;;;;;;24.03;14.90;;;;;;;;;;4990654;28;20436;-65
2022/01/26 06:04:34;;;;;;;21.23;13.67;;;;;;;;;;4990522;28;21024;-65
2022/01/26 06:07:00;;;;;;;20.77;14.00;;;;;;;;;;4990182;28;20433;-65
2022/01/26 06:09:26;;;;;;;25.10;14.97;;;;;;;;;;4990810;28;20480;-64
2022/01/26 06:11:52;;;;;;;23.03;15.90;;;;;;;;;;4969769;28;20522;-67
2022/01/26 06:14:18;;;;;;;23.00;13.63;;;;;;;;;;4989980;28;20456;-65
2022/01/26 06:16:44;;;;;;;23.63;14.40;;;;;;;;;;4991522;28;20480;-67
2022/01/26 06:19:10;;;;;;;21.57;14.33;;;;;;;;;;4989317;28;20452;-65
2022/01/26 06:21:36;;;;;;;25.47;13.63;;;;;;;;;;4972109;28;20453;-67
2022/01/26 06:24:02;;;;;;;22.00;14.57;;;;;;;;;;4989681;28;20999;-65
2022/01/26 06:26:28;;;;;;;20.17;13.87;;;;;;;;;;4989950;28;20495;-65
2022/01/26 06:28:54;;;;;;;25.10;14.60;;;;;;;;;;4972229;28;20465;-66
2022/01/26 06:31:26;;;;;;;22.27;13.87;;;;;;;;;;4988538;28;20499;-64
2022/01/26 06:33:52;;;;;;;25.30;15.40;;;;;;;;;;4987798;28;20452;-65
2022/01/26 06:36:18;;;;;;;24.43;14.17;;;;;;;;;;4988332;28;20795;-69
2022/01/26 06:38:46;;;;;;;21.50;13.50;;;;;;;;;;4990056;28;20448;-66
2022/01/26 06:41:13;;;;;;;24.90;14.53;;;;;;;;;;4990170;28;20444;-65
2022/01/26 06:43:49;;;;;;;18.67;14.50;;;;;;;;;;4971808;28;20437;-64
2022/01/26 06:46:23;;;;;;;18.43;12.93;;;;;;;;;;4971929;28;20532;-65
2022/01/26 06:49:28;;;;;;;23.87;13.97;;;;;;;;;;4989720;28;20964;-65
2022/01/26 06:51:44;;;;;;;22.23;13.73;;;;;;;;;;4990548;28;20477;-66
2022/01/26 06:54:10;;;;;;;18.67;13.63;;;;;;;;;;4989045;28;20929;-65
2022/01/26 06:56:36;;;;;;;23.43;15.10;;;;;;;;;;4989777;28;20461;-66
2022/01/26 06:59:02;;;;;;;21.20;13.97;;;;;;;;;;4983460;28;20449;-65
2022/01/26 07:01:28;;;;;;;28.60;15.20;;;;;;;;;;4983447;28;21008;-66
2022/01/26 07:03:54;;;;;;;24.67;15.10;;;;;;;;;;4989427;28;20440;-68
2022/01/26 07:06:20;;;;;;;24.07;14.70;;;;;;;;;;4987282;28;20532;-67
2022/01/26 07:08:46;;;;;;;26.10;14.40;;;;;;;;;;4972145;28;20428;-67
2022/01/26 07:11:12;;;;;;;19.13;12.53;;;;;;;;;;4986577;28;20437;-67
2022/01/26 07:13:42;;;;;;;24.57;13.37;;;;;;;;;;4988573;28;20451;-67
2022/01/26 07:21:37;;;;;;;24.93;13.97;;;;;;;;;;4988008;28;20471;-66
2022/01/26 07:24:03;;;;;;;20.33;12.50;;;;;;;;;;4988451;28;20507;-69
2022/01/26 07:26:30;;;;;;;22.53;13.73;;;;;;;;;;4986753;28;20436;-66
2022/01/26 07:29:05;;;;;;;19.40;13.50;;;;;;;;;;4989303;28;20417;-67
2022/01/26 07:31:33;;;;;;;33.43;15.13;;;;;;;;;;4987364;28;20834;-67
2022/01/26 07:33:59;;;;;;;24.80;15.03;;;;;;;;;;4986329;28;20483;-67
2022/01/26 07:36:25;;;;;;;22.00;14.27;;;;;;;;;;4986149;28;20445;-68
2022/01/26 07:38:54;;;;;;;21.20;13.93;;;;;;;;;;4989573;28;20437;-70
2022/01/26 07:41:20;;;;;;;22.53;13.30;;;;;;;;;;4986761;28;20921;-68
2022/01/26 07:43:47;;;;;;;23.70;13.23;;;;;;;;;;4988671;28;20789;-69
2022/01/26 07:46:13;;;;;;;19.23;12.30;;;;;;;;;;4985275;28;20429;-68
2022/01/26 07:48:39;;;;;;;27.20;15.17;;;;;;;;;;4985312;28;20436;-71
2022/01/26 07:51:06;;;;;;;23.47;14.33;;;;;;;;;;4986576;28;21237;-72
2022/01/26 07:53:33;;;;;;;24.83;14.73;;;;;;;;;;4971762;28;20532;-70
2022/01/26 07:55:59;;;;;;;23.90;14.93;;;;;;;;;;4986812;28;20475;-67
2022/01/26 07:58:25;;;;;;;27.37;15.33;;;;;;;;;;4988803;28;20444;-69
2022/01/26 08:00:52;;;;;;;24.10;14.57;;;;;;;;;;4987560;28;20463;-67
2022/01/26 08:03:18;;;;;;;27.63;14.07;;;;;;;;;;4988916;28;20452;-73
2022/01/26 08:05:44;;;;;;;24.23;14.50;;;;;;;;;;4986022;28;20429;-72
2022/01/26 08:08:10;;;;;;;26.07;15.63;;;;;;;;;;4986872;28;20448;-68
2022/01/26 08:10:37;;;;;;;24.90;15.27;;;;;;;;;;4985592;28;20631;-67
2022/01/26 08:13:03;;;;;;;27.20;15.27;;;;;;;;;;4988668;28;20488;-67
2022/01/26 08:15:29;;;;;;;27.77;16.50;;;;;;;;;;4985077;28;20818;-69
2022/01/26 08:17:56;;;;;;;24.43;15.13;;;;;;;;;;4971292;28;20472;-67
2022/01/26 08:20:22;;;;;;;26.70;14.87;;;;;;;;;;4986152;28;20977;-67
2022/01/26 08:22:50;;;;;;;28.10;16.17;;;;;;;;;;4987521;28;20451;-67
2022/01/26 08:25:16;;;;;;;21.93;14.03;;;;;;;;;;4988168;28;21000;-68
2022/01/26 08:27:47;;;;;;;36.50;16.27;;;;;;;;;;4992602;28;20441;-67
2022/01/26 08:30:17;;;;;;;25.83;15.03;;;;;;;;;;4990310;28;20429;-67
2022/01/26 08:32:43;;;;;;;21.10;13.70;;;;;;;;;;4992255;28;20476;-66
2022/01/26 08:35:10;;;;;;;25.70;14.80;;;;;;;;;;4987617;28;20444;-65
2022/01/26 08:37:36;;;;;;;33.27;14.60;;;;;;;;;;4990135;28;20480;-65
2022/01/26 08:40:02;;;;;;;35.00;15.77;;;;;;;;;;4990159;28;20433;-65
2022/01/26 08:42:28;;;;;;;30.33;13.27;;;;;;;;;;4990906;28;20544;-65
2022/01/26 08:44:54;;;;;;;28.70;14.60;;;;;;;;;;4989261;28;20516;-64
2022/01/26 08:47:20;;;;;;;27.40;14.13;;;;;;;;;;4991444;28;20445;-66
2022/01/26 08:49:46;;;;;;;27.33;15.77;;;;;;;;;;4989562;28;20459;-65
2022/01/26 08:52:12;;;;;;;26.33;14.93;;;;;;;;;;4991797;28;20492;-65
2022/01/26 08:54:38;;;;;;;23.83;14.13;;;;;;;;;;4990297;28;20439;-65
2022/01/26 08:57:04;;;;;;;29.90;15.10;;;;;;;;;;4989997;28;20448;-68
2022/01/26 08:59:30;;;;;;;29.93;14.70;;;;;;;;;;4989576;28;20417;-64
2022/01/26 09:01:56;;;;;;;30.00;13.90;;;;;;;;;;4989614;28;20485;-66
2022/01/26 09:04:22;;;;;;;21.30;13.47;;;;;;;;;;4989360;28;20939;-64
2022/01/26 09:06:57;;;;;;;37.63;14.90;;;;;;;;;;4991088;28;20449;-65
2022/01/26 09:09:24;;;;;;;30.07;15.77;;;;;;;;;;4990140;28;20436;-65
2022/01/26 09:11:50;;;;;;;26.10;14.57;;;;;;;;;;4990815;28;21032;-69
2022/01/26 09:14:20;;;;;;;29.90;16.47;;;;;;;;;;4971409;28;20531;-65
2022/01/26 09:16:51;;;;;;;30.57;16.90;;;;;;;;;;4989689;28;20910;-66
2022/01/26 09:19:36;;;;;;;30.07;15.97;;;;;;;;;;4987589;28;20436;-66
2022/01/26 09:22:04;;;;;;;30.33;15.90;;;;;;;;;;4990921;28;20463;-64
2022/01/26 09:24:31;;;;;;;23.50;15.20;;;;;;;;;;4989013;28;20440;-66
2022/01/26 09:26:58;;;;;;;24.87;13.50;;;;;;;;;;4972654;28;20510;-67
2022/01/26 09:29:24;;;;;;;26.50;14.43;;;;;;;;;;4989130;28;20993;-67
2022/01/26 09:31:50;;;;;;;29.80;15.17;;;;;;;;;;4990351;28;20499;-65
2022/01/26 09:34:20;;;;;;;27.10;14.40;;;;;;;;;;4989076;28;20441;-70
2022/01/26 09:36:46;;;;;;;25.73;14.83;;;;;;;;;;4990753;28;20461;-65
2022/01/26 09:39:13;;;;;;;27.83;14.93;;;;;;;;;;4988925;28;21088;-68
2022/01/26 09:41:40;;;;;;;26.60;15.57;;;;;;;;;;4990624;28;20425;-66
2022/01/26 09:44:06;;;;;;;31.10;16.37;;;;;;;;;;4990044;28;20429;-69
2022/01/26 09:46:33;;;;;;;23.20;12.77;;;;;;;;;;4990819;28;20421;-68
2022/01/26 09:49:01;;;;;;;28.63;15.67;;;;;;;;;;4988027;28;20949;-74
2022/01/26 09:51:27;;;;;;;27.20;14.70;;;;;;;;;;4972706;28;20441;-68
2022/01/26 09:54:03;;;;;;;29.10;15.90;;;;;;;;;;4969222;28;20516;-68
2022/01/26 09:56:29;;;;;;;27.80;14.70;;;;;;;;;;4989890;28;20436;-65
2022/01/26 09:58:56;;;;;;;30.20;15.60;;;;;;;;;;4989141;28;20413;-66
2022/01/26 10:01:21;;;;;;;22.53;15.00;;;;;;;;;;4987263;28;20437;-72
2022/01/26 10:03:49;;;;;;;29.37;13.67;;;;;;;;;;4987495;28;20434;-67
2022/01/26 10:06:22;;;;;;;25.77;13.90;;;;;;;;;;4989520;28;20985;-65
2022/01/26 10:19:05;;;;;;;27.10;15.17;;;;;;;;;;4987885;28;20806;-69
2022/01/26 10:21:31;;;;;;;28.23;16.20;;;;;;;;;;4990402;28;20433;-74
2022/01/26 10:24:09;;;;;;;35.40;17.20;;;;;;;;;;4984549;28;20933;-67
2022/01/26 10:26:35;;;;;;;42.77;17.23;;;;;;;;;;4972326;28;20432;-65
2022/01/26 10:29:21;;;;;;;27.50;15.63;;;;;;;;;;4987276;28;20433;-66
2022/01/26 10:31:47;;;;;;;32.63;13.30;;;;;;;;;;4972863;28;20476;-68
2022/01/26 10:34:17;;;;;;;26.97;15.27;;;;;;;;;;4988524;28;20429;-69
2022/01/26 10:36:45;;;;;;;26.83;15.83;;;;;;;;;;4990069;28;21103;-69
2022/01/26 10:39:13;;;;;;;25.43;14.90;;;;;;;;;;4985603;28;20437;-74
2022/01/26 10:41:40;;;;;;;28.57;15.50;;;;;;;;;;4971582;28;20568;-65
2022/01/26 10:44:06;;;;;;;36.77;16.97;;;;;;;;;;4988924;28;20433;-67
2022/01/26 10:46:36;;;;;;;33.43;15.87;;;;;;;;;;4988735;28;20441;-66
2022/01/26 10:51:55;;;;;;;32.13;15.57;;;;;;;;;;4950439;28;20511;-68
2022/01/26 10:54:37;;;;;;;29.43;16.20;;;;;;;;;;4989935;28;20425;-66
2022/01/26 10:57:07;;;;;;;28.13;14.67;;;;;;;;;;4986410;28;20451;-64
2022/01/26 10:59:34;;;;;;;21.90;14.23;;;;;;;;;;4988542;28;20528;-68
2022/01/26 11:02:04;;;;;;;26.63;13.37;;;;;;;;;;4986303;28;20434;-66
2022/01/26 11:04:32;;;;;;;39.10;14.13;;;;;;;;;;4988569;28;20509;-65
2022/01/26 11:06:58;;;;;;;30.63;16.30;;;;;;;;;;4986658;28;20492;-65
2022/01/26 11:09:28;;;;;;;26.50;14.57;;;;;;;;;;4988811;28;20457;-73
2022/01/26 11:11:59;;;;;;;24.57;14.90;;;;;;;;;;4985485;28;20820;-65
2022/01/26 11:14:25;;;;;;;30.10;17.63;;;;;;;;;;4989500;28;20440;-65
2022/01/26 11:16:53;;;;;;;26.60;15.17;;;;;;;;;;4982640;28;20436;-66
2022/01/26 11:19:19;;;;;;;32.03;17.37;;;;;;;;;;4985707;28;20457;-65
2022/01/26 11:21:45;;;;;;;27.20;15.70;;;;;;;;;;4985399;28;20452;-67
2022/01/26 11:24:16;;;;;;;32.47;18.50;;;;;;;;;;4987044;28;20440;-66
2022/01/26 11:26:44;;;;;;;25.97;15.00;;;;;;;;;;4985402;28;20436;-65
2022/01/26 11:29:25;;;;;;;25.83;15.10;;;;;;;;;;4987473;28;20929;-65
2022/01/26 11:32:05;;;;;;;28.90;17.03;;;;;;;;;;4986291;28;20562;-65
2022/01/26 11:34:32;;;;;;;32.47;21.57;;;;;;;;;;4987536;28;20432;-67
2022/01/26 11:36:59;;;;;;;41.70;20.77;;;;;;;;;;4984393;28;20473;-65
2022/01/26 11:47:30;;;;;;;51.93;27.93;;;;;;;;;;4985705;28;20482;-66
2022/01/26 11:50:12;;;;;;;58.47;30.67;;;;;;;;;;4970919;28;20433;-67
2022/01/26 11:52:39;;;;;;;45.10;23.43;;;;;;;;;;4984381;28;21175;-65
2022/01/26 11:55:35;;;;;;;32.40;17.83;;;;;;;;;;4987652;28;20933;-68
2022/01/26 11:58:09;;;;;;;36.33;18.33;;;;;;;;;;4985493;28;20579;-66
2022/01/26 12:00:44;;;;;;;27.43;17.20;;;;;;;;;;4990991;28;20872;-65
2022/01/26 12:03:24;;;;;;;35.33;18.13;;;;;;;;;;4992037;28;20439;-64
2022/01/26 12:05:52;;;;;;;36.50;21.17;;;;;;;;;;4989417;28;20483;-65
2022/01/26 12:08:31;;;;;;;34.93;18.27;;;;;;;;;;4992075;28;20432;-66
2022/01/26 12:10:57;;;;;;;33.33;20.03;;;;;;;;;;4989194;28;20445;-64
2022/01/26 12:13:28;;;;;;;43.90;23.00;;;;;;;;;;4992587;28;20476;-68
2022/01/26 12:15:57;;;;;;;48.93;25.00;;;;;;;;;;4989637;28;20433;-66
2022/01/26 12:18:40;;;;;;;51.40;29.47;;;;;;;;;;4992041;28;20444;-66
2022/01/26 12:32:51;;;;;;;26.47;16.07;;;;;;;;;;4990478;28;20559;-69
2022/01/26 12:35:24;;;;;;;29.03;16.33;;;;;;;;;;4989317;28;20440;-67
2022/01/26 12:38:11;;;;;;;30.80;16.00;;;;;;;;;;4989755;28;20520;-68
2022/01/26 12:43:40;;;;;;;41.43;19.57;;;;;;;;;;4992030;28;20436;-65
2022/01/26 12:46:07;;;;;;;44.23;26.53;;;;;;;;;;4989816;28;20445;-65
2022/01/26 12:48:34;;;;;;;38.60;24.00;;;;;;;;;;4992500;28;20471;-65
2022/01/26 12:51:02;;;;;;;30.27;15.60;;;;;;;;;;4989176;28;20436;-68
2022/01/26 12:53:28;;;;;;;37.03;21.77;;;;;;;;;;4991873;28;20481;-65
2022/01/26 12:55:56;;;;;;;41.57;25.00;;;;;;;;;;4988588;28;20437;-68
2022/01/26 12:58:27;;;;;;;32.77;19.60;;;;;;;;;;4992573;28;20464;-65
2022/01/26 13:00:53;;;;;;;33.10;18.37;;;;;;;;;;4988579;28;20799;-70
2022/01/26 13:03:19;;;;;;;39.60;21.90;;;;;;;;;;4990334;28;20610;-70
2022/01/26 13:05:45;;;;;;;32.47;17.67;;;;;;;;;;4971491;28;20521;-69
2022/01/26 13:08:12;;;;;;;35.07;18.30;;;;;;;;;;4992168;28;20433;-66
2022/01/26 13:10:38;;;;;;;31.97;18.03;;;;;;;;;;4969737;28;20435;-66
2022/01/26 13:13:12;;;;;;;32.45;21.85;;;;;;;;;;4990113;28;20543;-65
2022/01/26 13:16:07;;;;;;;33.53;19.07;;;;;;;;;;4971591;28;20196;-69
2022/01/26 13:19:03;;;;;;;39.07;20.77;;;;;;;;;;4990393;28;20491;-66
2022/01/26 13:22:25;;;;;;;34.70;18.20;;;;;;;;;;4987452;28;20432;-66
2022/01/26 13:24:35;;;;;;;41.90;19.67;;;;;;;;;;4980626;28;20453;-67
2022/01/26 13:35:11;;;;;;;30.13;17.97;;;;;;;;;;4989228;28;20451;-65
2022/01/26 13:40:41;;;;;;;34.13;19.00;;;;;;;;;;4988842;28;20435;-68
2022/01/26 13:46:29;;;;;;;32.00;17.20;;;;;;;;;;4988776;28;20436;-65
2022/01/26 13:49:14;;;;;;;40.07;19.40;;;;;;;;;;4989652;28;20564;-65
2022/01/26 13:55:00;;;;;;;35.87;18.53;;;;;;;;;;4988391;28;20444;-65
2022/01/26 13:57:47;;;;;;;30.93;18.10;;;;;;;;;;4990878;28;20467;-66
2022/01/26 14:00:15;;;;;;;37.93;18.83;;;;;;;;;;4970975;28;20456;-67
2022/01/26 14:02:41;;;;;;;31.60;19.80;;;;;;;;;;4989788;28;20440;-67
2022/01/26 14:05:08;;;;;;;29.57;17.03;;;;;;;;;;4988186;28;20515;-67
2022/01/26 14:07:34;;;;;;;37.23;16.90;;;;;;;;;;4990080;28;20437;-68
2022/01/26 14:10:00;;;;;;;37.57;18.87;;;;;;;;;;4987917;28;20433;-69
2022/01/26 14:12:30;;;;;;;41.67;19.30;;;;;;;;;;4989786;28;20900;-70
2022/01/26 14:14:58;;;;;;;32.43;18.70;;;;;;;;;;4988071;28;20932;-70
2022/01/26 14:18:11;;;;;;;26.73;16.07;;;;;;;;;;4990233;28;20921;-69
2022/01/26 14:20:39;;;;;;;32.63;17.70;;;;;;;;;;4976899;28;20440;-66
2022/01/26 14:25:42;;;;;;;39.07;21.57;;;;;;;;;;4987593;28;20492;-68
2022/01/26 14:28:11;;;;;;;55.27;23.70;;;;;;;;;;4990416;28;20445;-69
2022/01/26 14:30:47;;;;;;;44.03;21.43;;;;;;;;;;4987527;28;20429;-69
2022/01/26 15:40:54;;;;;;;31.27;16.70;;;;;;;;;;4991401;28;20463;-67
2022/01/26 15:43:36;;;;;;;34.20;16.80;;;;;;;;;;4990765;28;20428;-67
2022/01/26 15:51:31;;;;;;;37.43;16.93;;;;;;;;;;4991944;28;20523;-66
2022/01/26 16:07:38;;;;;;;41.87;23.23;;;;;;;;;;4990357;28;20949;-66
2022/01/26 16:16:29;;;;;;;37.93;22.80;;;;;;;;;;4975401;28;20564;-66
2022/01/26 16:21:21;;;;;;;31.27;17.30;;;;;;;;;;4989180;28;21303;-66
2022/01/26 18:05:28;;;;;;;36.13;18.97;;;;;;;;;;4988946;28;20428;-70
2022/01/26 18:13:55;;;;;;;28.53;15.80;;;;;;;;;;4990307;28;20484;-70
2022/01/26 18:32:49;;;;;;;32.43;15.77;;;;;;;;;;4990137;28;20535;-69
2022/01/26 18:51:28;;;;;;;36.77;17.50;;;;;;;;;;4988745;28;20468;-69
2022/01/26 18:53:54;;;;;;;33.10;17.67;;;;;;;;;;4989261;28;20492;-68
2022/01/26 18:56:20;;;;;;;35.90;17.57;;;;;;;;;;4986550;28;20429;-66
2022/01/26 18:58:46;;;;;;;33.63;18.47;;;;;;;;;;4990804;28;20436;-68
2022/01/26 19:01:12;;;;;;;34.33;18.60;;;;;;;;;;4985900;28;20925;-70
2022/01/26 19:03:38;;;;;;;30.37;17.53;;;;;;;;;;4989826;28;20470;-70
2022/01/26 19:06:04;;;;;;;35.13;18.00;;;;;;;;;;4986092;28;20445;-70
2022/01/26 19:08:31;;;;;;;38.50;16.90;;;;;;;;;;4988059;28;20437;-71
2022/01/26 19:10:57;;;;;;;29.20;16.93;;;;;;;;;;4986690;28;20437;-69
2022/01/26 19:13:28;;;;;;;36.00;19.03;;;;;;;;;;4989117;28;20579;-68
2022/01/26 19:15:59;;;;;;;39.30;20.50;;;;;;;;;;4986493;28;20435;-68
2022/01/26 19:18:39;;;;;;;38.50;18.40;;;;;;;;;;4988847;28;20440;-69
2022/01/26 19:21:19;;;;;;;30.33;17.10;;;;;;;;;;4986395;28;20497;-69
2022/01/26 19:26:36;;;;;;;30.80;18.10;;;;;;;;;;4988178;28;20495;-67
2022/01/26 19:29:17;;;;;;;36.77;17.47;;;;;;;;;;4987106;28;20433;-69
2022/01/26 19:40:46;;;;;;;39.97;19.57;;;;;;;;;;4986106;28;22155;-67
2022/01/26 19:43:34;;;;;;;32.93;17.80;;;;;;;;;;4987044;28;20443;-69
2022/01/26 19:51:34;;;;;;;36.53;19.03;;;;;;;;;;4982165;28;21477;-66
2022/01/26 19:54:00;;;;;;;36.10;17.80;;;;;;;;;;4987528;28;20452;-66
2022/01/26 19:56:26;;;;;;;36.90;18.40;;;;;;;;;;4988393;28;20420;-68
2022/01/26 19:58:52;;;;;;;35.33;19.03;;;;;;;;;;4987001;28;20970;-66
2022/01/26 20:01:18;;;;;;;33.43;18.57;;;;;;;;;;4988126;28;20441;-66
2022/01/26 20:03:44;;;;;;;34.70;17.40;;;;;;;;;;4986309;28;20441;-69
2022/01/26 20:06:12;;;;;;;39.17;20.00;;;;;;;;;;4989201;28;20441;-68
2022/01/26 20:08:54;;;;;;;32.17;18.00;;;;;;;;;;4969072;28;20500;-70
2022/01/26 20:11:38;;;;;;;35.37;18.80;;;;;;;;;;4970903;28;20437;-67
2022/01/26 20:14:06;;;;;;;39.63;18.13;;;;;;;;;;4986831;28;20448;-69
2022/01/26 20:16:33;;;;;;;39.83;19.13;;;;;;;;;;4988032;28;20436;-69
2022/01/26 20:18:59;;;;;;;39.10;19.43;;;;;;;;;;4986507;28;20433;-66
2022/01/26 20:21:26;;;;;;;44.17;18.10;;;;;;;;;;4991754;28;20412;-68
2022/01/26 20:23:52;;;;;;;42.27;18.73;;;;;;;;;;4989174;28;20980;-67
2022/01/26 20:26:18;;;;;;;33.33;17.80;;;;;;;;;;4974025;28;20535;-71
2022/01/26 20:28:45;;;;;;;41.23;22.53;;;;;;;;;;4990746;28;20536;-67
2022/01/26 20:31:20;;;;;;;39.67;20.43;;;;;;;;;;4989407;28;20523;-67
2022/01/26 20:33:47;;;;;;;37.40;18.33;;;;;;;;;;4989352;28;20945;-71
2022/01/26 20:36:13;;;;;;;38.23;19.70;;;;;;;;;;4976808;28;20450;-72
2022/01/26 20:38:41;;;;;;;39.93;16.77;;;;;;;;;;4990130;28;20452;-73
2022/01/26 20:41:07;;;;;;;37.17;18.50;;;;;;;;;;4990993;28;20503;-71
2022/01/26 20:43:33;;;;;;;40.27;20.50;;;;;;;;;;4972387;28;20476;-73
2022/01/26 20:46:02;;;;;;;36.60;17.80;;;;;;;;;;4991656;28;20441;-68
2022/01/26 20:48:28;;;;;;;38.17;17.40;;;;;;;;;;4989421;28;20446;-70
2022/01/26 20:50:54;;;;;;;38.30;18.83;;;;;;;;;;4992237;28;20441;-70
2022/01/26 20:53:20;;;;;;;36.70;18.70;;;;;;;;;;4990669;28;20516;-72
2022/01/26 20:55:46;;;;;;;34.67;19.47;;;;;;;;;;4973544;28;20473;-69
2022/01/26 20:58:12;;;;;;;39.47;18.50;;;;;;;;;;4972734;28;20464;-69
2022/01/26 21:00:38;;;;;;;39.23;16.23;;;;;;;;;;4991714;28;20925;-69
2022/01/26 21:03:04;;;;;;;34.03;17.63;;;;;;;;;;4972278;28;20586;-69
2022/01/26 21:05:30;;;;;;;38.67;17.20;;;;;;;;;;4991663;28;20933;-69